createdAt,value
2022-09-11T00:00:42.811Z,1.60
2022-09-11T00:01:42.247Z,0.20
2022-09-11T00:02:42.242Z,0.00
2022-09-11T00:03:42.353Z,0.00
2022-09-11T00:04:42.183Z,0.00
2022-09-11T00:05:42.154Z,2.80
2022-09-11T00:06:44.156Z,3.90
2022-09-11T00:07:42.130Z,4.30
2022-09-11T00:08:42.468Z,4.20
2022-09-11T00:09:42.177Z,4.50
2022-09-11T00:10:42.096Z,4.70
2022-09-11T00:11:42.089Z,3.70
2022-09-11T00:12:42.098Z,5.40
2022-09-11T00:13:42.142Z,0.70
2022-09-11T00:14:42.052Z,4.60
2022-09-11T00:15:42.062Z,4.20
2022-09-11T00:16:42.029Z,4.50
2022-09-11T00:17:42.031Z,4.40
2022-09-11T00:18:42.013Z,3.90
2022-09-11T00:19:42.040Z,4.70
2022-09-11T00:20:42.005Z,5.00
2022-09-11T00:21:41.998Z,3.80
2022-09-11T00:22:41.967Z,4.60
2022-09-11T00:23:43.090Z,5.20
2022-09-11T00:24:41.945Z,4.60
2022-09-11T00:25:41.929Z,4.70
2022-09-11T00:26:41.946Z,4.70
2022-09-11T00:27:41.907Z,4.70
2022-09-11T00:28:41.952Z,4.80
2022-09-11T00:29:41.889Z,4.50
2022-09-11T00:30:41.895Z,4.90
2022-09-11T00:31:42.002Z,4.50
2022-09-11T00:32:41.856Z,4.90
2022-09-11T00:33:41.994Z,4.80
2022-09-11T00:34:41.882Z,4.50
2022-09-11T00:35:41.835Z,5.20
2022-09-11T00:36:41.906Z,4.80
2022-09-11T00:37:41.818Z,4.80
2022-09-11T00:38:41.807Z,5.30
2022-09-11T00:39:41.816Z,5.00
2022-09-11T00:40:41.775Z,4.80
2022-09-11T00:41:41.753Z,5.20
2022-09-11T00:42:41.759Z,5.10
2022-09-11T00:43:41.840Z,4.90
2022-09-11T00:44:41.737Z,5.30
2022-09-11T00:45:41.762Z,5.30
2022-09-11T00:46:41.702Z,5.20
2022-09-11T00:47:41.680Z,5.50
2022-09-11T00:48:41.695Z,4.10
2022-09-11T00:49:42.134Z,4.00
2022-09-11T00:50:41.649Z,5.60
2022-09-11T00:51:41.638Z,6.60
2022-09-11T00:52:41.628Z,5.10
2022-09-11T00:53:41.796Z,5.20
2022-09-11T00:54:41.615Z,5.40
2022-09-11T00:55:41.594Z,5.00
2022-09-11T00:56:41.583Z,4.80
2022-09-11T00:57:41.613Z,5.00
2022-09-11T00:58:41.563Z,5.30
2022-09-11T00:59:41.573Z,5.70
2022-09-11T01:00:41.594Z,5.40
2022-09-11T01:01:41.569Z,5.50
2022-09-11T01:02:41.520Z,5.10
2022-09-11T01:03:44.417Z,6.80
2022-09-11T01:04:41.492Z,4.40
2022-09-11T01:05:41.503Z,4.90
2022-09-11T01:06:41.477Z,4.80
2022-09-11T01:07:41.459Z,4.40
2022-09-11T01:08:41.464Z,4.70
2022-09-11T01:09:41.442Z,4.90
2022-09-11T01:10:41.440Z,4.90
2022-09-11T01:11:41.417Z,5.30
2022-09-11T01:12:41.407Z,5.30
2022-09-11T01:13:41.452Z,5.00
2022-09-11T01:14:41.466Z,5.00
2022-09-11T01:15:41.371Z,5.50
2022-09-11T01:16:41.401Z,4.90
2022-09-11T01:17:41.343Z,5.30
2022-09-11T01:18:41.379Z,4.30
2022-09-11T01:19:41.328Z,4.50
2022-09-11T01:20:41.326Z,4.10
2022-09-11T01:21:41.298Z,4.50
2022-09-11T01:22:41.300Z,4.90
2022-09-11T01:23:41.489Z,3.20
2022-09-11T01:24:42.748Z,2.60
2022-09-11T01:25:41.265Z,2.80
2022-09-11T01:26:41.245Z,3.00
2022-09-11T01:27:41.321Z,3.20
2022-09-11T01:28:41.231Z,4.00
2022-09-11T01:29:42.821Z,4.10
2022-09-11T01:30:41.204Z,4.50
2022-09-11T01:31:41.285Z,4.30
2022-09-11T01:32:41.198Z,4.60
2022-09-11T01:33:41.245Z,4.80
2022-09-11T01:34:41.155Z,4.30
2022-09-11T01:35:41.143Z,3.20
2022-09-11T01:36:41.149Z,3.20
2022-09-11T01:37:41.124Z,3.00
2022-09-11T01:38:41.615Z,3.50
2022-09-11T01:39:41.120Z,3.40
2022-09-11T01:40:41.088Z,3.40
2022-09-11T01:41:41.092Z,3.50
2022-09-11T01:42:41.069Z,3.60
2022-09-11T01:43:41.358Z,3.60
2022-09-11T01:44:41.205Z,3.60
2022-09-11T01:45:41.092Z,3.80
2022-09-11T01:46:41.031Z,3.80
2022-09-11T01:47:41.030Z,4.00
2022-09-11T01:48:41.175Z,3.70
2022-09-11T01:49:40.987Z,3.50
2022-09-11T01:50:40.978Z,4.10
2022-09-11T01:51:40.965Z,3.50
2022-09-11T01:52:40.954Z,3.80
2022-09-11T01:53:41.007Z,3.80
2022-09-11T01:54:40.929Z,4.20
2022-09-11T01:55:40.924Z,4.00
2022-09-11T01:56:40.912Z,4.10
2022-09-11T01:57:40.895Z,4.20
2022-09-11T01:58:40.912Z,4.20
2022-09-11T01:59:40.876Z,3.80
2022-09-11T02:00:40.901Z,4.20
2022-09-11T02:01:41.037Z,4.30
2022-09-11T02:02:40.845Z,4.20
2022-09-11T02:03:40.973Z,4.00
2022-09-11T02:04:43.543Z,3.50
2022-09-11T02:05:40.925Z,3.50
2022-09-11T02:06:40.801Z,4.20
2022-09-11T02:07:40.792Z,4.20
2022-09-11T02:08:40.773Z,4.10
2022-09-11T02:09:40.766Z,4.30
2022-09-11T02:10:40.769Z,4.70
2022-09-11T02:11:40.777Z,4.60
2022-09-11T02:12:40.735Z,4.30
2022-09-11T02:13:40.813Z,4.30
2022-09-11T02:14:40.718Z,3.50
2022-09-11T02:15:41.556Z,3.10
2022-09-11T02:16:40.686Z,4.60
2022-09-11T02:17:40.672Z,4.30
2022-09-11T02:18:40.791Z,4.20
2022-09-11T02:19:40.651Z,2.10
2022-09-11T02:20:40.678Z,4.30
2022-09-11T02:21:40.636Z,0.00
2022-09-11T02:22:40.615Z,0.00
2022-09-11T02:23:40.689Z,0.00
2022-09-11T02:24:40.598Z,0.00
2022-09-11T02:25:40.607Z,0.20
2022-09-11T02:26:40.577Z,0.00
2022-09-11T02:27:40.557Z,0.00
2022-09-11T02:28:40.552Z,1.10
2022-09-11T02:29:40.542Z,1.30
2022-09-11T02:30:40.555Z,1.10
2022-09-11T02:31:40.566Z,1.40
2022-09-11T02:32:40.508Z,0.90
2022-09-11T02:33:40.540Z,0.40
2022-09-11T02:34:40.503Z,0.00
2022-09-11T02:35:40.731Z,0.00
2022-09-11T02:36:40.505Z,0.50
2022-09-11T02:37:40.451Z,2.50
2022-09-11T02:38:40.454Z,0.00
2022-09-11T02:39:40.711Z,0.00
2022-09-11T02:40:40.414Z,0.30
2022-09-11T02:41:40.407Z,1.40
2022-09-11T02:42:40.418Z,0.10
2022-09-11T02:43:40.401Z,2.40
2022-09-11T02:44:40.378Z,0.90
2022-09-11T02:45:40.389Z,0.00
2022-09-11T02:46:40.355Z,0.00
2022-09-11T02:47:40.363Z,0.00
2022-09-11T02:48:40.329Z,0.00
2022-09-11T02:49:40.317Z,0.00
2022-09-11T02:50:40.405Z,0.00
2022-09-11T02:51:40.293Z,0.00
2022-09-11T02:52:40.300Z,0.00
2022-09-11T02:53:43.020Z,0.00
2022-09-11T02:54:40.584Z,0.00
2022-09-11T02:55:40.249Z,1.80
2022-09-11T02:56:40.236Z,4.00
2022-09-11T02:57:40.229Z,1.40
2022-09-11T02:58:40.251Z,1.40
2022-09-11T02:59:40.222Z,1.40
2022-09-11T03:00:40.243Z,1.40
2022-09-11T03:01:40.244Z,1.30
2022-09-11T03:02:40.170Z,1.30
2022-09-11T03:03:40.274Z,1.20
2022-09-11T03:04:40.153Z,1.20
2022-09-11T03:05:40.137Z,1.20
2022-09-11T03:06:40.144Z,5.20
2022-09-11T03:07:40.383Z,5.00
2022-09-11T03:08:40.121Z,5.80
2022-09-11T03:09:40.094Z,5.40
2022-09-11T03:10:40.105Z,5.50
2022-09-11T03:11:40.111Z,5.00
2022-09-11T03:12:40.073Z,5.50
2022-09-11T03:13:40.110Z,5.10
2022-09-11T03:14:40.031Z,5.60
2022-09-11T03:15:40.046Z,5.40
2022-09-11T03:16:40.046Z,5.30
2022-09-11T03:17:40.000Z,5.50
2022-09-11T03:18:39.991Z,5.10
2022-09-11T03:19:39.996Z,5.10
2022-09-11T03:20:39.973Z,5.10
2022-09-11T03:21:39.956Z,4.90
2022-09-11T03:22:39.971Z,5.00
2022-09-11T03:23:40.002Z,5.20
2022-09-11T03:24:39.959Z,4.80
2022-09-11T03:25:39.911Z,4.80
2022-09-11T03:26:40.043Z,3.00
2022-09-11T03:27:39.895Z,3.10
2022-09-11T03:28:39.891Z,3.40
2022-09-11T03:29:40.909Z,2.80
2022-09-11T03:30:39.858Z,3.10
2022-09-11T03:31:39.926Z,3.40
2022-09-11T03:32:39.832Z,3.30
2022-09-11T03:33:39.941Z,3.40
2022-09-11T03:34:39.834Z,3.40
2022-09-11T03:35:39.797Z,4.30
2022-09-11T03:36:39.791Z,10.20
2022-09-11T03:38:30.143Z,3.00
2022-09-11T03:39:31.637Z,3.40
2022-09-11T03:40:30.141Z,4.10
2022-09-11T03:41:30.114Z,3.50
2022-09-11T03:42:30.098Z,3.20
2022-09-11T03:43:30.089Z,2.90
2022-09-11T03:44:30.100Z,3.10
2022-09-11T03:45:30.092Z,3.50
2022-09-11T03:46:30.055Z,3.70
2022-09-11T03:47:30.044Z,4.90
2022-09-11T03:48:30.047Z,5.40
2022-09-11T03:49:30.023Z,4.80
2022-09-11T03:50:30.282Z,5.40
2022-09-11T03:51:30.001Z,5.00
2022-09-11T03:52:29.990Z,4.10
2022-09-11T03:53:29.999Z,4.20
2022-09-11T03:54:29.977Z,4.80
2022-09-11T03:55:29.959Z,5.00
2022-09-11T03:56:29.961Z,4.80
2022-09-11T03:57:29.936Z,5.00
2022-09-11T03:58:29.923Z,5.30
2022-09-11T03:59:29.935Z,5.70
2022-09-11T04:00:29.897Z,5.50
2022-09-11T04:01:29.889Z,5.80
2022-09-11T04:02:29.894Z,5.40
2022-09-11T04:03:29.878Z,5.20
2022-09-11T04:04:29.873Z,5.40
2022-09-11T04:05:29.923Z,5.60
2022-09-11T04:06:29.833Z,3.40
2022-09-11T04:07:29.819Z,2.80
2022-09-11T04:08:29.813Z,4.20
2022-09-11T04:09:29.813Z,4.90
2022-09-11T04:10:29.792Z,5.10
2022-09-11T04:11:30.954Z,5.20
2022-09-11T04:12:29.785Z,5.00
2022-09-11T04:13:29.753Z,4.90
2022-09-11T04:14:29.769Z,6.70
2022-09-11T04:15:29.736Z,6.60
2022-09-11T04:16:29.956Z,5.00
2022-09-11T04:17:29.726Z,5.20
2022-09-11T04:18:29.706Z,4.90
2022-09-11T04:19:29.687Z,5.20
2022-09-11T04:20:29.953Z,5.70
2022-09-11T04:21:29.665Z,6.90
2022-09-11T04:22:30.423Z,4.80
2022-09-11T04:23:29.644Z,3.60
2022-09-11T04:24:30.635Z,5.10
2022-09-11T04:25:29.656Z,4.20
2022-09-11T04:26:29.616Z,3.60
2022-09-11T04:27:29.599Z,5.20
2022-09-11T04:28:29.605Z,5.20
2022-09-11T04:29:29.604Z,3.80
2022-09-11T04:30:29.580Z,4.70
2022-09-11T04:31:29.638Z,6.40
2022-09-11T04:32:29.538Z,4.30
2022-09-11T04:33:29.548Z,3.80
2022-09-11T04:34:29.521Z,3.30
2022-09-11T04:35:29.529Z,3.20
2022-09-11T04:36:29.498Z,3.30
2022-09-11T04:37:29.548Z,7.00
2022-09-11T04:38:29.478Z,4.70
2022-09-11T04:39:29.488Z,4.50
2022-09-11T04:40:29.465Z,3.10
2022-09-11T04:41:29.443Z,3.30
2022-09-11T04:42:29.432Z,3.40
2022-09-11T04:43:29.423Z,3.00
2022-09-11T04:44:29.453Z,3.10
2022-09-11T04:45:31.437Z,2.90
2022-09-11T04:46:29.383Z,3.50
2022-09-11T04:47:29.374Z,3.10
2022-09-11T04:48:29.363Z,4.20
2022-09-11T04:49:29.374Z,4.10
2022-09-11T04:50:29.373Z,3.80
2022-09-11T04:51:29.379Z,3.90
2022-09-11T04:52:29.324Z,3.80
2022-09-11T04:53:29.307Z,3.70
2022-09-11T04:54:29.388Z,3.60
2022-09-11T04:55:29.490Z,3.80
2022-09-11T04:56:29.307Z,4.00
2022-09-11T04:57:29.260Z,4.90
2022-09-11T04:58:29.255Z,4.60
2022-09-11T04:59:29.244Z,4.70
2022-09-11T05:00:29.276Z,4.70
2022-09-11T05:01:29.242Z,4.70
2022-09-11T05:02:29.353Z,5.20
2022-09-11T05:03:29.217Z,5.00
2022-09-11T05:04:29.233Z,4.60
2022-09-11T05:05:29.232Z,4.70
2022-09-11T05:06:29.192Z,4.50
2022-09-11T05:07:29.966Z,4.30
2022-09-11T05:08:29.157Z,4.70
2022-09-11T05:09:29.202Z,4.60
2022-09-11T05:10:29.224Z,4.70
2022-09-11T05:11:29.137Z,4.80
2022-09-11T05:12:29.117Z,4.90
2022-09-11T05:13:33.085Z,4.90
2022-09-11T05:14:30.084Z,5.10
2022-09-11T05:15:29.105Z,5.20
2022-09-11T05:16:29.124Z,5.00
2022-09-11T05:17:29.050Z,5.70
2022-09-11T05:18:29.022Z,6.10
2022-09-11T05:19:29.019Z,4.80
2022-09-11T05:20:29.016Z,4.50
2022-09-11T05:21:28.996Z,5.50
2022-09-11T05:22:28.984Z,4.80
2022-09-11T05:23:28.973Z,5.10
2022-09-11T05:24:28.969Z,5.30
2022-09-11T05:25:28.989Z,5.60
2022-09-11T05:26:28.936Z,4.90
2022-09-11T05:27:28.928Z,5.20
2022-09-11T05:28:28.949Z,5.40
2022-09-11T05:29:32.262Z,5.20
2022-09-11T05:30:31.398Z,5.20
2022-09-11T05:31:28.983Z,5.20
2022-09-11T05:32:29.031Z,5.10
2022-09-11T05:33:28.861Z,5.30
2022-09-11T05:34:28.844Z,4.80
2022-09-11T05:35:32.224Z,4.60
2022-09-11T05:36:28.826Z,4.80
2022-09-11T05:37:28.818Z,4.50
2022-09-11T05:38:28.810Z,4.70
2022-09-11T05:39:28.790Z,4.70
2022-09-11T05:40:28.803Z,4.90
2022-09-11T05:41:28.773Z,4.60
2022-09-11T05:42:28.767Z,4.30
2022-09-11T05:43:28.847Z,4.60
2022-09-11T05:44:28.739Z,4.60
2022-09-11T05:45:28.793Z,4.90
2022-09-11T05:46:28.717Z,5.20
2022-09-11T05:47:28.760Z,4.60
2022-09-11T05:48:28.723Z,4.90
2022-09-11T05:49:28.811Z,4.90
2022-09-11T05:50:28.753Z,4.60
2022-09-11T05:51:28.670Z,4.70
2022-09-11T05:52:28.687Z,5.00
2022-09-11T05:53:28.644Z,4.90
2022-09-11T05:54:28.626Z,4.60
2022-09-11T05:55:28.650Z,4.90
2022-09-11T05:56:28.609Z,4.80
2022-09-11T05:57:28.601Z,4.70
2022-09-11T05:58:28.581Z,4.70
2022-09-11T05:59:28.574Z,4.90
2022-09-11T06:00:28.876Z,4.90
2022-09-11T06:01:28.593Z,4.90
2022-09-11T06:02:28.617Z,5.10
2022-09-11T06:03:28.528Z,5.20
2022-09-11T06:04:28.810Z,4.90
2022-09-11T06:05:28.524Z,5.20
2022-09-11T06:06:28.495Z,5.10
2022-09-11T06:07:28.494Z,4.90
2022-09-11T06:08:28.473Z,5.20
2022-09-11T06:09:28.478Z,5.40
2022-09-11T06:10:28.451Z,5.40
2022-09-11T06:11:28.434Z,5.20
2022-09-11T06:12:28.429Z,4.90
2022-09-11T06:13:28.512Z,5.10
2022-09-11T06:14:28.408Z,5.50
2022-09-11T06:15:45.784Z,5.30
2022-09-11T06:16:29.401Z,5.20
2022-09-11T06:17:28.394Z,5.30
2022-09-11T06:18:28.368Z,5.50
2022-09-11T06:19:28.443Z,5.40
2022-09-11T06:20:28.354Z,5.00
2022-09-11T06:21:28.343Z,5.40
2022-09-11T06:22:28.322Z,5.30
2022-09-11T06:23:28.318Z,5.40
2022-09-11T06:24:28.308Z,5.70
2022-09-11T06:25:28.302Z,5.70
2022-09-11T06:26:28.274Z,5.60
2022-09-11T06:27:28.262Z,5.50
2022-09-11T06:28:28.277Z,5.20
2022-09-11T06:29:28.239Z,5.30
2022-09-11T06:30:28.429Z,5.40
2022-09-11T06:31:28.219Z,5.40
2022-09-11T06:32:28.240Z,5.20
2022-09-11T06:33:28.215Z,5.20
2022-09-11T06:34:28.490Z,5.40
2022-09-11T06:35:28.181Z,5.40
2022-09-11T06:36:28.176Z,5.70
2022-09-11T06:37:28.149Z,5.80
2022-09-11T06:38:28.152Z,5.90
2022-09-11T06:39:28.128Z,6.00
2022-09-11T06:40:28.111Z,5.70
2022-09-11T06:41:28.128Z,5.90
2022-09-11T06:42:28.137Z,5.90
2022-09-11T06:43:28.081Z,5.80
2022-09-11T06:44:28.072Z,5.90
2022-09-11T06:45:28.929Z,5.40
2022-09-11T06:46:28.050Z,5.40
2022-09-11T06:47:28.732Z,5.40
2022-09-11T06:48:28.022Z,5.50
2022-09-11T06:49:28.079Z,5.90
2022-09-11T06:50:28.004Z,6.00
2022-09-11T06:51:28.183Z,5.90
2022-09-11T06:52:28.639Z,5.90
2022-09-11T06:53:27.965Z,6.00
2022-09-11T06:54:27.958Z,6.00
2022-09-11T06:55:27.943Z,5.40
2022-09-11T06:56:27.932Z,5.40
2022-09-11T06:57:27.988Z,5.30
2022-09-11T06:58:27.913Z,5.60
2022-09-11T06:59:27.903Z,5.30
2022-09-11T07:00:27.888Z,4.80
2022-09-11T07:01:27.945Z,5.30
2022-09-11T07:02:32.332Z,5.20
2022-09-11T07:03:27.871Z,5.20
2022-09-11T07:04:27.841Z,5.20
2022-09-11T07:05:27.836Z,5.50
2022-09-11T07:06:27.831Z,5.20
2022-09-11T07:07:27.837Z,5.40
2022-09-11T07:08:27.836Z,5.00
2022-09-11T07:09:27.797Z,5.40
2022-09-11T07:10:27.801Z,5.50
2022-09-11T07:11:27.773Z,5.50
2022-09-11T07:12:27.763Z,5.50
2022-09-11T07:13:27.752Z,5.70
2022-09-11T07:14:27.755Z,5.50
2022-09-11T07:15:27.726Z,5.60
2022-09-11T07:16:27.786Z,5.40
2022-09-11T07:17:27.702Z,5.40
2022-09-11T07:18:27.689Z,5.80
2022-09-11T07:19:27.689Z,5.20
2022-09-11T07:20:27.688Z,5.10
2022-09-11T07:21:27.659Z,5.20
2022-09-11T07:22:27.702Z,6.00
2022-09-11T07:23:27.815Z,5.50
2022-09-11T07:24:27.640Z,5.70
2022-09-11T07:25:27.702Z,5.50
2022-09-11T07:26:27.602Z,5.70
2022-09-11T07:27:27.589Z,5.40
2022-09-11T07:28:27.575Z,5.80
2022-09-11T07:29:27.565Z,5.50
2022-09-11T07:30:27.620Z,5.80
2022-09-11T07:31:27.561Z,5.70
2022-09-11T07:32:27.551Z,5.80
2022-09-11T07:33:27.534Z,5.30
2022-09-11T07:34:27.516Z,5.90
2022-09-11T07:35:27.504Z,5.60
2022-09-11T07:36:27.505Z,5.50
2022-09-11T07:37:27.479Z,5.30
2022-09-11T07:38:27.673Z,5.40
2022-09-11T07:39:27.479Z,5.10
2022-09-11T07:40:27.476Z,5.10
2022-09-11T07:41:27.440Z,5.40
2022-09-11T07:42:27.421Z,5.70
2022-09-11T07:43:27.412Z,5.00
2022-09-11T07:44:27.470Z,5.50
2022-09-11T07:45:27.390Z,5.70
2022-09-11T07:46:27.398Z,5.40
2022-09-11T07:47:27.374Z,5.40
2022-09-11T07:48:27.375Z,5.20
2022-09-11T07:49:28.922Z,5.30
2022-09-11T07:50:27.334Z,5.00
2022-09-11T07:51:27.329Z,5.00
2022-09-11T07:52:27.318Z,5.10
2022-09-11T07:53:27.325Z,5.40
2022-09-11T07:54:27.290Z,5.20
2022-09-11T07:55:27.435Z,5.30
2022-09-11T07:56:27.314Z,4.90
2022-09-11T07:57:27.280Z,5.10
2022-09-11T07:58:27.247Z,5.10
2022-09-11T07:59:27.237Z,5.10
2022-09-11T08:00:27.223Z,5.60
2022-09-11T08:01:27.326Z,5.50
2022-09-11T08:02:27.243Z,5.30
2022-09-11T08:03:27.764Z,5.20
2022-09-11T08:04:27.183Z,5.20
2022-09-11T08:05:27.165Z,5.40
2022-09-11T08:06:27.377Z,5.30
2022-09-11T08:07:27.142Z,5.30
2022-09-11T08:08:27.149Z,5.20
2022-09-11T08:09:27.120Z,5.40
2022-09-11T08:10:28.219Z,4.90
2022-09-11T08:11:27.099Z,5.20
2022-09-11T08:12:27.167Z,5.00
2022-09-11T08:13:27.095Z,4.70
2022-09-11T08:14:27.068Z,5.00
2022-09-11T08:15:27.062Z,5.20
2022-09-11T08:16:27.147Z,5.10
2022-09-11T08:17:27.045Z,5.40
2022-09-11T08:18:27.022Z,5.00
2022-09-11T08:19:27.023Z,4.90
2022-09-11T08:20:27.019Z,5.20
2022-09-11T08:21:28.779Z,5.20
2022-09-11T08:22:27.012Z,5.40
2022-09-11T08:23:27.961Z,5.00
2022-09-11T08:24:26.966Z,4.50
2022-09-11T08:25:26.941Z,4.60
2022-09-11T08:26:26.961Z,4.30
2022-09-11T08:27:27.247Z,4.30
2022-09-11T08:28:26.933Z,5.00
2022-09-11T08:29:26.921Z,5.00
2022-09-11T08:30:26.939Z,5.10
2022-09-11T08:31:27.023Z,5.00
2022-09-11T08:32:26.881Z,4.80
2022-09-11T08:33:26.862Z,4.50
2022-09-11T08:34:26.847Z,5.30
2022-09-11T08:35:26.851Z,5.10
2022-09-11T08:36:26.914Z,5.60
2022-09-11T08:37:26.826Z,4.60
2022-09-11T08:38:26.816Z,5.30
2022-09-11T08:39:26.797Z,4.80
2022-09-11T08:40:26.790Z,4.70
2022-09-11T08:41:29.197Z,5.30
2022-09-11T08:42:26.759Z,5.10
2022-09-11T08:43:26.758Z,5.30
2022-09-11T08:44:26.947Z,5.30
2022-09-11T08:45:26.830Z,5.30
2022-09-11T08:46:26.791Z,5.00
2022-09-11T08:47:26.702Z,4.90
2022-09-11T08:48:26.693Z,5.20
2022-09-11T08:49:26.736Z,5.00
2022-09-11T08:50:26.700Z,5.20
2022-09-11T08:51:26.664Z,5.30
2022-09-11T08:52:26.661Z,5.40
2022-09-11T08:53:26.638Z,5.10
2022-09-11T08:54:26.670Z,5.40
2022-09-11T08:55:26.719Z,5.20
2022-09-11T08:56:26.623Z,5.40
2022-09-11T08:57:26.616Z,5.60
2022-09-11T08:58:26.583Z,5.40
2022-09-11T08:59:26.568Z,5.50
2022-09-11T09:00:26.604Z,5.60
2022-09-11T09:01:26.737Z,5.40
2022-09-11T09:02:26.577Z,5.40
2022-09-11T09:03:26.527Z,5.10
2022-09-11T09:04:26.818Z,4.30
2022-09-11T09:05:26.507Z,5.00
2022-09-11T09:06:26.498Z,4.70
2022-09-11T09:07:26.483Z,5.00
2022-09-11T09:08:26.486Z,5.10
2022-09-11T09:09:26.484Z,5.70
2022-09-11T09:10:26.451Z,6.00
2022-09-11T09:11:26.557Z,5.50
2022-09-11T09:12:26.428Z,6.00
2022-09-11T09:13:29.152Z,5.30
2022-09-11T09:14:27.051Z,5.40
2022-09-11T09:15:29.513Z,5.80
2022-09-11T09:16:26.575Z,5.60
2022-09-11T09:17:26.393Z,5.10
2022-09-11T09:18:26.368Z,5.30
2022-09-11T09:19:26.349Z,5.20
2022-09-11T09:20:26.349Z,5.00
2022-09-11T09:21:26.389Z,4.60
2022-09-11T09:22:26.325Z,5.30
2022-09-11T09:23:26.309Z,5.20
2022-09-11T09:24:26.318Z,4.80
2022-09-11T09:25:26.280Z,5.10
2022-09-11T09:26:26.370Z,5.40
2022-09-11T09:27:26.265Z,4.90
2022-09-11T09:28:26.314Z,4.90
2022-09-11T09:29:26.239Z,5.00
2022-09-11T09:30:26.230Z,5.00
2022-09-11T09:31:26.433Z,4.80
2022-09-11T09:32:26.225Z,5.10
2022-09-11T09:33:26.231Z,5.10
2022-09-11T09:34:26.184Z,4.80
2022-09-11T09:35:26.217Z,4.80
2022-09-11T09:36:26.183Z,4.90
2022-09-11T09:37:26.208Z,5.50
2022-09-11T09:38:27.105Z,5.50
2022-09-11T09:39:26.178Z,5.60
2022-09-11T09:40:28.724Z,5.50
2022-09-11T09:41:26.104Z,5.60
2022-09-11T09:42:26.097Z,5.00
2022-09-11T09:43:26.104Z,5.20
2022-09-11T09:44:26.078Z,5.40
2022-09-11T09:45:26.096Z,5.40
2022-09-11T09:46:26.109Z,5.60
2022-09-11T09:47:26.047Z,5.10
2022-09-11T09:48:26.583Z,5.30
2022-09-11T09:49:26.031Z,5.80
2022-09-11T09:50:26.016Z,5.20
2022-09-11T09:51:25.996Z,5.20
2022-09-11T09:52:25.988Z,6.00
2022-09-11T09:53:26.100Z,5.20
2022-09-11T09:54:26.490Z,5.40
2022-09-11T09:55:25.954Z,5.50
2022-09-11T09:56:25.959Z,5.60
2022-09-11T09:57:25.991Z,5.40
2022-09-11T09:58:25.924Z,5.20
2022-09-11T09:59:35.091Z,5.40
2022-09-11T10:00:25.902Z,5.80
2022-09-11T10:01:25.936Z,4.90
2022-09-11T10:02:25.904Z,4.50
2022-09-11T10:03:25.864Z,4.10
2022-09-11T10:04:25.874Z,4.60
2022-09-11T10:05:25.838Z,4.30
2022-09-11T10:06:25.870Z,4.90
2022-09-11T10:07:25.888Z,4.40
2022-09-11T10:08:26.496Z,4.60
2022-09-11T10:09:25.801Z,4.40
2022-09-11T10:10:25.784Z,4.40
2022-09-11T10:11:25.854Z,4.50
2022-09-11T10:12:25.772Z,4.50
2022-09-11T10:13:25.755Z,4.70
2022-09-11T10:14:49.933Z,4.60
2022-09-11T10:15:26.731Z,5.20
2022-09-11T10:16:25.726Z,5.40
2022-09-11T10:17:25.787Z,5.20
2022-09-11T10:18:25.712Z,4.90
2022-09-11T10:19:25.708Z,5.20
2022-09-11T10:20:25.757Z,5.00
2022-09-11T10:21:25.672Z,4.60
2022-09-11T10:22:25.657Z,5.00
2022-09-11T10:23:25.673Z,5.10
2022-09-11T10:24:25.711Z,5.10
2022-09-11T10:25:25.625Z,5.40
2022-09-11T10:26:25.771Z,5.40
2022-09-11T10:27:28.865Z,5.10
2022-09-11T10:28:25.591Z,4.90
2022-09-11T10:29:25.579Z,5.10
2022-09-11T10:30:25.585Z,5.30
2022-09-11T10:31:25.609Z,5.20
2022-09-11T10:32:29.063Z,5.00
2022-09-11T10:33:25.537Z,5.40
2022-09-11T10:34:25.527Z,5.70
2022-09-11T10:35:25.514Z,5.80
2022-09-11T10:36:25.543Z,5.60
2022-09-11T10:37:25.509Z,6.10
2022-09-11T10:38:25.479Z,6.90
2022-09-11T10:39:26.086Z,6.20
2022-09-11T10:40:25.463Z,6.10
2022-09-11T10:41:25.450Z,6.20
2022-09-11T10:42:26.207Z,6.00
2022-09-11T10:43:25.475Z,5.70
2022-09-11T10:44:25.425Z,6.10
2022-09-11T10:45:25.436Z,5.90
2022-09-11T10:46:27.857Z,6.10
2022-09-11T10:47:25.387Z,5.30
2022-09-11T10:48:25.418Z,5.30
2022-09-11T10:49:25.363Z,5.60
2022-09-11T10:50:25.360Z,5.50
2022-09-11T10:51:25.348Z,5.60
2022-09-11T10:52:36.149Z,5.70
2022-09-11T10:53:25.322Z,5.80
2022-09-11T10:54:25.315Z,6.00
2022-09-11T10:55:25.305Z,5.80
2022-09-11T10:56:25.288Z,5.10
2022-09-11T10:57:25.317Z,5.40
2022-09-11T10:58:25.268Z,5.80
2022-09-11T10:59:25.253Z,6.20
2022-09-11T11:00:25.367Z,5.50
2022-09-11T11:01:25.263Z,5.60
2022-09-11T11:02:25.357Z,5.30
2022-09-11T11:03:25.226Z,5.40
2022-09-11T11:04:25.202Z,5.30
2022-09-11T11:05:25.190Z,5.20
2022-09-11T11:06:25.181Z,5.10
2022-09-11T11:07:25.184Z,4.70
2022-09-11T11:08:25.175Z,5.00
2022-09-11T11:09:30.364Z,4.70
2022-09-11T11:10:26.142Z,5.10
2022-09-11T11:11:25.127Z,5.90
2022-09-11T11:12:25.135Z,5.50
2022-09-11T11:13:25.244Z,5.30
2022-09-11T11:14:25.092Z,5.70
2022-09-11T11:15:29.935Z,5.90
2022-09-11T11:16:26.100Z,6.00
2022-09-11T11:17:25.061Z,5.90
2022-09-11T11:18:25.047Z,5.60
2022-09-11T11:19:25.472Z,5.80
2022-09-11T11:20:25.024Z,5.10
2022-09-11T11:21:25.052Z,4.90
2022-09-11T11:22:25.017Z,5.20
2022-09-11T11:23:24.997Z,4.70
2022-09-11T11:24:25.033Z,4.70
2022-09-11T11:25:24.967Z,5.10
2022-09-11T11:26:24.961Z,4.60
2022-09-11T11:27:24.948Z,4.80
2022-09-11T11:28:24.946Z,5.10
2022-09-11T11:29:24.940Z,5.10
2022-09-11T11:30:24.922Z,5.10
2022-09-11T11:31:24.933Z,5.60
2022-09-11T11:32:24.917Z,5.40
2022-09-11T11:33:24.891Z,5.60
2022-09-11T11:34:24.872Z,5.40
2022-09-11T11:35:24.862Z,6.00
2022-09-11T11:36:25.075Z,5.80
2022-09-11T11:37:24.924Z,5.50
2022-09-11T11:38:24.829Z,6.40
2022-09-11T11:39:24.829Z,6.10
2022-09-11T11:40:24.827Z,6.40
2022-09-11T11:41:24.868Z,6.20
2022-09-11T11:42:24.804Z,5.90
2022-09-11T11:43:24.797Z,6.10
2022-09-11T11:44:29.576Z,7.80
2022-09-11T11:45:24.766Z,2.50
2022-09-11T11:46:24.746Z,2.00
2022-09-11T11:47:24.861Z,13.00
2022-09-11T11:48:24.734Z,1.00
2022-09-11T11:49:24.749Z,3.90
2022-09-11T11:50:27.398Z,2.00
2022-09-11T11:51:25.736Z,1.50
2022-09-11T11:52:24.690Z,0.80
2022-09-11T11:53:24.678Z,0.90
2022-09-11T11:54:24.666Z,1.00
2022-09-11T11:55:24.671Z,1.30
2022-09-11T11:56:24.674Z,1.20
2022-09-11T11:57:24.680Z,3.80
2022-09-11T11:58:24.673Z,4.10
2022-09-11T11:59:24.614Z,6.30
2022-09-11T12:00:24.620Z,5.90
2022-09-11T12:01:24.605Z,6.40
2022-09-11T12:02:24.586Z,6.50
2022-09-11T12:03:24.625Z,6.50
2022-09-11T12:04:24.837Z,5.90
2022-09-11T12:05:24.548Z,2.90
2022-09-11T12:06:24.571Z,1.30
2022-09-11T12:07:24.564Z,3.40
2022-09-11T12:08:24.616Z,6.80
2022-09-11T12:09:24.641Z,8.70
2022-09-11T12:10:24.596Z,6.80
2022-09-11T12:11:25.880Z,6.80
2022-09-11T12:12:24.607Z,6.00
2022-09-11T12:13:24.628Z,5.20
2022-09-11T12:14:24.458Z,6.90
2022-09-11T12:15:24.686Z,11.10
2022-09-11T12:16:25.149Z,4.80
2022-09-11T12:17:24.426Z,5.80
2022-09-11T12:18:24.413Z,6.20
2022-09-11T12:19:24.403Z,7.60
2022-09-11T12:20:24.448Z,7.80
2022-09-11T12:21:24.396Z,6.50
2022-09-11T12:22:24.400Z,7.40
2022-09-11T12:23:24.362Z,8.20
2022-09-11T12:24:24.352Z,6.70
2022-09-11T12:25:24.520Z,6.50
2022-09-11T12:26:24.351Z,7.60
2022-09-11T12:27:25.121Z,5.50
2022-09-11T12:28:24.330Z,2.40
2022-09-11T12:29:24.319Z,7.20
2022-09-11T12:30:24.289Z,6.10
2022-09-11T12:31:24.330Z,6.40
2022-09-11T12:32:24.270Z,5.40
2022-09-11T12:33:24.260Z,5.50
2022-09-11T12:34:24.262Z,5.80
2022-09-11T12:35:24.257Z,5.60
2022-09-11T12:36:24.224Z,5.50
2022-09-11T12:37:24.216Z,6.00
2022-09-11T12:38:24.204Z,5.70
2022-09-11T12:39:24.203Z,5.70
2022-09-11T12:40:24.175Z,5.80
2022-09-11T12:41:24.201Z,5.90
2022-09-11T12:42:24.230Z,5.60
2022-09-11T12:43:24.146Z,5.60
2022-09-11T12:44:24.279Z,5.80
2022-09-11T12:45:24.137Z,5.80
2022-09-11T12:46:24.112Z,5.20
2022-09-11T12:47:24.123Z,5.50
2022-09-11T12:48:24.152Z,5.40
2022-09-11T12:49:24.082Z,4.50
2022-09-11T12:50:24.076Z,5.00
2022-09-11T12:51:24.063Z,4.80
2022-09-11T12:52:24.095Z,5.30
2022-09-11T12:53:24.064Z,5.20
2022-09-11T12:54:24.030Z,5.10
2022-09-11T12:55:24.020Z,5.20
2022-09-11T12:56:24.005Z,5.20
2022-09-11T12:57:24.662Z,5.00
2022-09-11T12:58:23.983Z,5.30
2022-09-11T12:59:23.972Z,5.00
2022-09-11T13:00:23.990Z,5.30
2022-09-11T13:01:24.106Z,5.30
2022-09-11T13:02:24.797Z,5.20
2022-09-11T13:03:23.931Z,5.50
2022-09-11T13:04:23.915Z,4.80
2022-09-11T13:05:23.921Z,5.00
2022-09-11T13:06:23.908Z,4.90
2022-09-11T13:07:23.897Z,5.00
2022-09-11T13:08:23.899Z,5.20
2022-09-11T13:09:23.867Z,5.00
2022-09-11T13:10:24.037Z,5.00
2022-09-11T13:11:23.867Z,5.10
2022-09-11T13:12:23.896Z,5.20
2022-09-11T13:13:23.823Z,4.90
2022-09-11T13:14:23.813Z,4.70
2022-09-11T13:15:23.816Z,5.70
2022-09-11T13:16:24.185Z,4.90
2022-09-11T13:17:23.779Z,4.90
2022-09-11T13:18:24.603Z,5.00
2022-09-11T13:19:23.756Z,5.30